createdAt,value
2023-02-07T00:01:14.879Z,1988.08
2023-02-07T00:04:39.255Z,1905.18
2023-02-07T00:08:00.107Z,1944.13
2023-02-07T00:11:37.114Z,2143.60
2023-02-07T00:14:57.768Z,2064.18
2023-02-07T00:18:18.480Z,2166.16
2023-02-07T00:21:39.452Z,2009.79
2023-02-07T00:25:09.603Z,1841.16
2023-02-07T00:28:33.130Z,1930.90
2023-02-07T00:31:56.974Z,1721.76
2023-02-07T00:35:19.197Z,1301.55
2023-02-07T00:38:40.165Z,1794.99
2023-02-07T00:42:08.081Z,1876.27
2023-02-07T00:45:40.586Z,1612.72
2023-02-07T00:49:07.494Z,1612.06
2023-02-07T00:52:28.181Z,1718.97
2023-02-07T00:55:48.880Z,1722.90
2023-02-07T00:59:10.440Z,1717.65
2023-02-07T01:02:33.774Z,1712.30
2023-02-07T01:05:54.690Z,1679.06
2023-02-07T01:09:29.177Z,1696.37
2023-02-07T01:12:55.685Z,1514.76
2023-02-07T01:16:28.397Z,1431.40
2023-02-07T01:19:52.078Z,1372.00
2023-02-07T01:23:15.622Z,1392.67
2023-02-07T01:26:45.646Z,1630.93
2023-02-07T01:30:11.881Z,1650.50
2023-02-07T01:33:32.655Z,1719.04
2023-02-07T01:36:56.139Z,1640.41
2023-02-07T01:40:17.283Z,1511.41
2023-02-07T01:43:39.240Z,1516.67
2023-02-07T01:47:00.758Z,1425.96
2023-02-07T01:50:32.104Z,1450.63
2023-02-07T01:54:15.481Z,1447.67
2023-02-07T01:57:36.590Z,1414.83
2023-02-07T02:00:58.440Z,1433.48
2023-02-07T02:04:19.088Z,1435.56
2023-02-07T02:07:42.964Z,1488.24
2023-02-07T02:11:47.891Z,1571.15
2023-02-07T02:15:38.125Z,1657.88
2023-02-07T02:19:44.476Z,1700.18
2023-02-07T02:23:39.608Z,1635.62
2023-02-07T02:27:18.922Z,1616.35
2023-02-07T02:31:16.712Z,1607.39
2023-02-07T02:34:58.217Z,1619.60
2023-02-07T02:38:33.958Z,1661.53
2023-02-07T02:42:10.485Z,1681.20
2023-02-07T02:45:42.270Z,1657.61
2023-02-07T02:49:20.945Z,1539.33
2023-02-07T02:52:50.659Z,1248.82
2023-02-07T02:56:32.500Z,1058.84
2023-02-07T03:00:06.781Z,1020.82
2023-02-07T03:04:24.436Z,1036.75
2023-02-07T03:07:58.151Z,1262.06
2023-02-07T03:11:17.232Z,1199.26
2023-02-07T03:14:37.278Z,1226.26
2023-02-07T03:17:57.512Z,1193.61
2023-02-07T03:21:14.489Z,1223.81
2023-02-07T03:24:32.578Z,1215.98
2023-02-07T03:27:43.503Z,1081.34
2023-02-07T03:30:57.781Z,984.00
2023-02-07T03:34:14.520Z,853.97
2023-02-07T03:37:30.908Z,920.44
2023-02-07T03:40:47.845Z,1054.34
2023-02-07T03:43:57.305Z,1154.54
2023-02-07T03:47:03.449Z,1231.85
2023-02-07T03:50:11.004Z,1218.15
2023-02-07T03:53:17.164Z,1244.88
2023-02-07T03:56:26.554Z,1312.53
2023-02-07T03:59:34.312Z,1426.13
2023-02-07T04:02:41.042Z,1409.79
2023-02-07T04:05:49.800Z,1364.93
2023-02-07T04:08:56.803Z,1351.68
2023-02-07T04:12:07.875Z,1198.38
2023-02-07T04:15:16.313Z,1101.74
2023-02-07T04:18:22.420Z,1157.36
2023-02-07T04:21:32.405Z,1115.05
2023-02-07T04:24:38.285Z,1125.44
2023-02-07T04:27:47.837Z,1091.00
2023-02-07T04:30:54.594Z,1146.15
2023-02-07T04:34:04.927Z,1118.45
2023-02-07T04:37:11.867Z,1198.25
2023-02-07T04:40:19.263Z,1261.50
2023-02-07T04:43:28.189Z,1346.01
2023-02-07T04:46:41.548Z,1281.72
2023-02-07T04:49:47.567Z,1039.42
2023-02-07T04:52:57.797Z,924.79
2023-02-07T04:56:06.326Z,957.56
2023-02-07T04:59:15.680Z,972.23
2023-02-07T05:02:21.521Z,990.43
2023-02-07T05:05:28.746Z,995.11
2023-02-07T05:08:34.762Z,969.14
2023-02-07T05:11:41.452Z,966.42
2023-02-07T05:14:50.009Z,965.40
2023-02-07T05:17:57.280Z,951.29
2023-02-07T05:21:07.836Z,949.05
2023-02-07T05:24:14.800Z,954.34
2023-02-07T05:27:20.699Z,918.14
2023-02-07T05:30:30.506Z,1000.84
2023-02-07T05:33:36.191Z,1609.36
2023-02-07T05:36:43.528Z,1570.37
2023-02-07T05:39:49.556Z,1562.60
2023-02-07T05:42:57.338Z,1676.57
2023-02-07T05:46:06.167Z,1555.50
2023-02-07T05:49:16.573Z,1554.38
2023-02-07T05:52:22.558Z,1506.43
2023-02-07T05:55:29.557Z,1651.11
2023-02-07T05:58:35.541Z,1640.41
2023-02-07T06:01:43.803Z,1565.33
2023-02-07T06:05:04.802Z,1407.48
2023-02-07T06:08:25.616Z,1417.17
2023-02-07T06:11:33.184Z,1480.54
2023-02-07T06:14:39.569Z,1677.13
2023-02-07T06:17:49.004Z,1545.82
2023-02-07T06:20:55.419Z,1476.33
2023-02-07T06:24:02.243Z,1583.83
2023-02-07T06:27:12.693Z,1700.67
2023-02-07T06:30:19.605Z,1815.93
2023-02-07T06:33:28.285Z,1851.66
2023-02-07T06:36:35.246Z,1728.00
2023-02-07T06:39:41.373Z,1634.80
2023-02-07T06:42:53.212Z,1706.33
2023-02-07T06:45:59.890Z,1838.86
2023-02-07T06:49:11.512Z,1886.21
2023-02-07T06:52:17.799Z,1894.96
2023-02-07T06:55:24.790Z,1935.29
2023-02-07T06:58:37.080Z,1892.14
2023-02-07T07:01:44.608Z,1906.70
2023-02-07T07:04:53.363Z,1745.69
2023-02-07T07:08:01.994Z,1639.42
2023-02-07T07:11:08.415Z,1657.48
2023-02-07T07:14:16.179Z,1687.65
2023-02-07T07:17:22.191Z,1797.32
2023-02-07T07:20:38.764Z,1943.25
2023-02-07T07:23:44.908Z,1842.16
2023-02-07T07:26:54.481Z,1866.34
2023-02-07T07:30:00.562Z,1815.46
2023-02-07T07:33:10.742Z,1606.66
2023-02-07T07:36:19.404Z,1705.76
2023-02-07T07:39:26.640Z,1671.34
2023-02-07T07:42:32.659Z,1680.86
2023-02-07T07:45:59.796Z,1665.92
2023-02-07T07:49:05.820Z,1645.75
2023-02-07T07:52:15.246Z,1523.64
2023-02-07T07:55:21.595Z,1370.45
2023-02-07T07:58:30.809Z,1161.67
2023-02-07T08:01:36.933Z,1203.90
2023-02-07T08:04:43.747Z,1251.41
2023-02-07T08:07:52.407Z,1301.29
2023-02-07T08:11:05.478Z,1585.89
2023-02-07T08:14:11.422Z,1453.66
2023-02-07T08:17:23.270Z,1808.35
2023-02-07T08:20:36.158Z,1918.61
2023-02-07T08:23:45.954Z,2033.37
2023-02-07T08:26:51.980Z,2186.68
2023-02-07T08:29:58.911Z,2138.12
2023-02-07T08:33:05.031Z,2009.86
2023-02-07T08:36:12.281Z,1928.81
2023-02-07T08:39:27.085Z,1873.52
2023-02-07T08:42:36.613Z,1871.52
2023-02-07T08:45:42.794Z,1912.22
2023-02-07T08:48:50.094Z,1924.97
2023-02-07T08:51:56.807Z,1915.62
2023-02-07T08:55:08.294Z,1924.25
2023-02-07T08:58:14.400Z,2013.18
2023-02-07T09:01:23.669Z,2073.52
2023-02-07T09:04:29.926Z,2083.46
2023-02-07T09:07:36.666Z,1929.48
2023-02-07T09:10:47.490Z,1633.32
2023-02-07T09:13:54.414Z,1569.19
2023-02-07T09:17:03.868Z,1534.32
2023-02-07T09:20:11.860Z,1503.09
2023-02-07T09:23:20.907Z,1557.92
2023-02-07T09:26:32.449Z,1609.06
2023-02-07T09:29:38.716Z,1480.20
2023-02-07T09:32:46.107Z,1183.31
2023-02-07T09:35:54.859Z,1144.74
2023-02-07T09:39:03.784Z,1201.44
2023-02-07T09:42:34.955Z,1096.11
2023-02-07T09:45:51.678Z,1149.10
2023-02-07T09:49:13.397Z,1223.15
2023-02-07T09:52:32.193Z,1270.25
2023-02-07T09:55:52.912Z,1387.14
2023-02-07T09:59:25.174Z,1406.84
2023-02-07T10:02:47.720Z,1302.77
2023-02-07T10:06:17.459Z,1259.85
2023-02-07T10:09:43.442Z,1279.66
2023-02-07T10:13:41.708Z,1283.95
2023-02-07T10:17:31.609Z,1204.75
2023-02-07T10:20:49.254Z,1192.17
2023-02-07T10:24:27.729Z,1274.58
2023-02-07T10:27:48.892Z,1116.28
2023-02-07T10:31:05.356Z,1098.46
2023-02-07T10:34:24.622Z,959.51
2023-02-07T10:37:40.476Z,1074.63
2023-02-07T10:41:03.484Z,1125.41
2023-02-07T10:44:16.717Z,1188.15
2023-02-07T10:47:26.402Z,1099.30
2023-02-07T10:50:35.354Z,1141.50
2023-02-07T10:54:04.691Z,1134.27
2023-02-07T10:57:23.734Z,1320.26
2023-02-07T11:00:38.517Z,1112.74
2023-02-07T11:03:44.818Z,1037.14
2023-02-07T11:07:04.596Z,1030.28
2023-02-07T11:10:21.590Z,1162.15
2023-02-07T11:13:32.799Z,1074.12
2023-02-07T11:16:39.331Z,1089.79
2023-02-07T11:19:49.177Z,1129.71
2023-02-07T11:23:00.179Z,1158.85
2023-02-07T11:26:08.740Z,1246.84
2023-02-07T11:29:22.267Z,1225.51
2023-02-07T11:32:31.740Z,1296.26
2023-02-07T11:35:40.099Z,1287.59
2023-02-07T11:38:53.974Z,1275.62
2023-02-07T11:42:04.771Z,1300.38
2023-02-07T11:45:18.572Z,1302.74
2023-02-07T11:48:31.574Z,1455.34
2023-02-07T11:51:40.099Z,2088.34
2023-02-07T11:54:57.831Z,1491.32
2023-02-07T11:58:17.996Z,1519.53
2023-02-07T12:01:32.809Z,1368.24
2023-02-07T12:04:42.471Z,1469.15
2023-02-07T12:07:55.385Z,1419.37
2023-02-07T12:11:15.554Z,1468.10
2023-02-07T12:14:35.975Z,1449.48
2023-02-07T12:17:59.755Z,1489.26
2023-02-07T12:21:21.145Z,1626.81
2023-02-07T12:24:37.118Z,1510.00
2023-02-07T12:27:53.397Z,1471.18
2023-02-07T12:31:17.963Z,1480.70
2023-02-07T12:34:36.909Z,1351.45
2023-02-07T12:37:55.673Z,1433.27
2023-02-07T12:41:15.682Z,1501.31
2023-02-07T12:44:37.690Z,1349.85
2023-02-07T12:48:07.029Z,1246.78
2023-02-07T12:51:33.605Z,1338.39
2023-02-07T12:54:58.500Z,1363.51
2023-02-07T12:58:31.887Z,1217.11
2023-02-07T13:01:52.820Z,1148.97
2023-02-07T13:05:46.905Z,1139.67
2023-02-07T13:09:10.914Z,1122.71
2023-02-07T13:12:28.134Z,1017.14
2023-02-07T13:15:50.173Z,961.05
2023-02-07T13:19:14.714Z,915.25
2023-02-07T13:22:40.093Z,961.31
2023-02-07T13:25:53.436Z,958.69
2023-02-07T13:29:04.369Z,837.43
2023-02-07T13:32:21.829Z,843.76
2023-02-07T13:35:38.349Z,737.32
2023-02-07T13:39:11.509Z,724.82
2023-02-07T13:42:36.404Z,664.95
2023-02-07T13:45:59.266Z,708.86
2023-02-07T13:49:22.523Z,707.98
2023-02-07T13:52:46.100Z,654.40
2023-02-07T13:55:53.810Z,670.37
2023-02-07T13:59:12.976Z,710.11
2023-02-07T14:02:24.775Z,748.33
2023-02-07T14:05:37.572Z,760.69
2023-02-07T14:08:48.221Z,701.20
2023-02-07T14:12:04.793Z,764.58
2023-02-07T14:16:02.050Z,710.92
2023-02-07T14:19:14.243Z,986.87
2023-02-07T14:22:24.875Z,792.29
2023-02-07T14:25:46.949Z,662.15
2023-02-07T14:28:52.961Z,685.07
2023-02-07T14:32:04.119Z,677.47
2023-02-07T14:35:40.831Z,619.68
2023-02-07T14:39:07.132Z,596.09
2023-02-07T14:42:24.941Z,549.88
2023-02-07T14:45:36.340Z,585.75
2023-02-07T14:48:54.291Z,619.23
2023-02-07T14:52:10.682Z,673.85
2023-02-07T14:55:27.575Z,625.23
2023-02-07T14:58:45.663Z,625.79
2023-02-07T15:01:51.681Z,601.34
2023-02-07T15:04:58.588Z,555.91
2023-02-07T15:08:22.091Z,487.52
2023-02-07T15:11:30.649Z,501.56
2023-02-07T15:14:39.713Z,513.50
2023-02-07T15:17:47.829Z,543.66
2023-02-07T15:20:59.490Z,523.01
2023-02-07T15:24:19.822Z,521.42
2023-02-07T15:27:28.831Z,532.06
2023-02-07T15:30:37.381Z,607.28
2023-02-07T15:33:53.777Z,624.46
2023-02-07T15:37:03.989Z,608.74
2023-02-07T15:40:20.486Z,600.13
2023-02-07T15:43:35.498Z,594.11
2023-02-07T15:46:54.489Z,569.90
2023-02-07T15:50:04.153Z,544.59
2023-02-07T15:53:11.960Z,522.51
2023-02-07T15:56:22.901Z,525.33
2023-02-07T15:59:34.670Z,540.73
2023-02-07T16:02:51.603Z,561.67
2023-02-07T16:06:10.285Z,588.23
2023-02-07T16:09:40.555Z,589.46
2023-02-07T16:12:53.356Z,585.80
2023-02-07T16:16:03.515Z,579.80
2023-02-07T16:19:20.457Z,655.64
2023-02-07T16:22:34.725Z,814.69
2023-02-07T16:25:41.228Z,881.22
2023-02-07T16:28:51.724Z,908.28
2023-02-07T16:31:59.315Z,947.29
2023-02-07T16:35:06.161Z,984.63
2023-02-07T16:38:12.155Z,853.65
2023-02-07T16:41:32.613Z,836.12
2023-02-07T16:44:41.258Z,843.92
2023-02-07T16:47:49.679Z,878.11
2023-02-07T16:50:55.708Z,886.38
2023-02-07T16:54:02.560Z,891.83
2023-02-07T16:57:08.927Z,937.84
2023-02-07T17:00:24.122Z,946.83
2023-02-07T17:03:30.192Z,926.57
2023-02-07T17:06:37.187Z,900.56
2023-02-07T17:09:43.312Z,843.75
2023-02-07T17:12:50.738Z,722.19
2023-02-07T17:15:59.776Z,766.84
2023-02-07T17:19:14.393Z,737.51
2023-02-07T17:22:20.397Z,956.50
2023-02-07T17:25:30.931Z,842.53
2023-02-07T17:28:37.578Z,802.08
2023-02-07T17:31:49.482Z,766.26
2023-02-07T17:34:55.741Z,730.84
2023-02-07T17:38:03.086Z,677.88
2023-02-07T17:41:10.026Z,650.42
2023-02-07T17:44:21.595Z,630.39
2023-02-07T17:47:30.126Z,634.09
2023-02-07T17:50:41.569Z,629.05
2023-02-07T17:53:47.657Z,627.24
2023-02-07T17:56:55.687Z,633.68
2023-02-07T18:00:01.849Z,643.73
2023-02-07T18:03:21.994Z,646.71
2023-02-07T18:06:31.398Z,662.92
2023-02-07T18:09:38.290Z,670.96
2023-02-07T18:12:44.406Z,682.90
2023-02-07T18:15:51.638Z,700.34
2023-02-07T18:19:01.017Z,703.41
2023-02-07T18:22:08.785Z,750.80
2023-02-07T18:25:15.555Z,830.46
2023-02-07T18:28:22.582Z,833.80
2023-02-07T18:31:28.876Z,789.62
2023-02-07T18:34:38.703Z,817.72
2023-02-07T18:37:45.177Z,893.08
2023-02-07T18:40:52.029Z,1042.71
2023-02-07T18:43:58.014Z,798.92
2023-02-07T18:47:04.886Z,674.52
2023-02-07T18:50:15.923Z,665.75
2023-02-07T18:53:23.202Z,677.02
2023-02-07T18:56:30.148Z,680.50
2023-02-07T18:59:37.739Z,681.80
2023-02-07T19:02:43.902Z,690.98
2023-02-07T19:05:53.263Z,1100.14
2023-02-07T19:09:00.411Z,840.39
2023-02-07T19:12:09.869Z,927.04
2023-02-07T19:15:16.911Z,1030.82
2023-02-07T19:18:24.116Z,762.05
2023-02-07T19:21:33.272Z,728.64
2023-02-07T19:24:42.318Z,724.35
2023-02-07T19:27:48.465Z,714.73
2023-02-07T19:30:55.329Z,708.55
2023-02-07T19:34:03.187Z,712.03
2023-02-07T19:37:12.701Z,701.31
2023-02-07T19:40:18.938Z,720.19
2023-02-07T19:43:26.321Z,740.60
2023-02-07T19:46:33.005Z,758.05
2023-02-07T19:49:40.400Z,770.28
2023-02-07T19:52:49.081Z,769.55
2023-02-07T19:55:56.116Z,795.56
2023-02-07T19:59:04.345Z,812.93
2023-02-07T20:02:11.308Z,834.18
2023-02-07T20:05:17.424Z,811.43
2023-02-07T20:08:27.035Z,783.65
2023-02-07T20:11:34.070Z,767.71
2023-02-07T20:14:41.243Z,771.39
2023-02-07T20:17:51.181Z,794.55
2023-02-07T20:21:06.224Z,790.84
2023-02-07T20:24:21.858Z,772.58
2023-02-07T20:27:30.441Z,729.99
2023-02-07T20:30:38.326Z,735.28
2023-02-07T20:33:50.605Z,667.23
2023-02-07T20:36:59.000Z,659.09
2023-02-07T20:40:09.579Z,674.71
2023-02-07T20:43:15.709Z,667.92
2023-02-07T20:46:22.703Z,1033.71
2023-02-07T20:49:37.215Z,717.14
2023-02-07T20:52:43.977Z,668.33
2023-02-07T20:55:52.617Z,675.38
2023-02-07T20:59:00.893Z,642.30
2023-02-07T21:02:09.915Z,633.63
2023-02-07T21:05:17.563Z,643.13
2023-02-07T21:08:25.248Z,650.87
2023-02-07T21:11:42.505Z,670.23
2023-02-07T21:14:52.607Z,704.22
2023-02-07T21:17:59.426Z,698.69
2023-02-07T21:21:14.178Z,669.62
2023-02-07T21:24:22.070Z,674.33
2023-02-07T21:27:30.723Z,719.54
2023-02-07T21:30:41.849Z,776.27
2023-02-07T21:33:49.868Z,748.00
2023-02-07T21:37:01.933Z,697.60
2023-02-07T21:40:09.917Z,672.25
2023-02-07T21:43:22.012Z,667.66
2023-02-07T21:46:33.086Z,668.79
2023-02-07T21:49:39.984Z,662.82
2023-02-07T21:52:46.006Z,650.60
2023-02-07T21:55:52.890Z,667.81
2023-02-07T21:59:05.229Z,690.13
2023-02-07T22:02:14.882Z,688.28
2023-02-07T22:05:21.255Z,674.80
2023-02-07T22:08:28.075Z,670.68
2023-02-07T22:11:37.820Z,671.03
2023-02-07T22:14:47.316Z,721.94
2023-02-07T22:17:53.240Z,730.94
2023-02-07T22:21:07.463Z,741.75
2023-02-07T22:24:18.490Z,696.17
2023-02-07T22:27:25.302Z,671.21
2023-02-07T22:30:33.899Z,621.77
2023-02-07T22:33:40.856Z,582.94
2023-02-07T22:36:48.923Z,574.37
2023-02-07T22:39:55.626Z,581.44
2023-02-07T22:43:01.507Z,613.26
2023-02-07T22:46:16.060Z,621.97
2023-02-07T22:49:22.213Z,605.28
2023-02-07T22:52:29.176Z,624.06
2023-02-07T22:55:36.621Z,616.04
2023-02-07T22:58:44.655Z,619.25
2023-02-07T23:01:53.405Z,625.60
2023-02-07T23:05:00.244Z,663.66
2023-02-07T23:08:06.319Z,661.60
2023-02-07T23:11:21.912Z,722.81
2023-02-07T23:14:27.856Z,673.81
2023-02-07T23:17:37.646Z,622.70
2023-02-07T23:20:47.576Z,630.24
2023-02-07T23:23:54.753Z,624.79
2023-02-07T23:27:00.622Z,636.92
2023-02-07T23:30:08.408Z,650.46
2023-02-07T23:33:16.932Z,670.65
2023-02-07T23:36:24.817Z,666.42
2023-02-07T23:39:30.829Z,641.47
2023-02-07T23:42:38.053Z,656.77
2023-02-07T23:45:44.143Z,685.75
2023-02-07T23:48:53.580Z,674.00
2023-02-07T23:51:59.483Z,675.84
2023-02-07T23:55:23.124Z,738.70
2023-02-07T23:58:31.233Z,704.61
